sensor_id;sensor_type;location;lat;lon;timestamp;pressure;altitude;pressure_sealevel;temperature
12875;BMP180;6505;51.114;13.128;2023-06-22T00:00:28;99852.00;;;28.50
12875;BMP180;6505;51.114;13.128;2023-06-22T00:02:57;99861.00;;;28.40
12875;BMP180;6505;51.114;13.128;2023-06-22T00:05:26;99865.00;;;28.40
12875;BMP180;6505;51.114;13.128;2023-06-22T00:07:54;99869.00;;;28.40
12875;BMP180;6505;51.114;13.128;2023-06-22T00:10:22;99862.00;;;28.40
12875;BMP180;6505;51.114;13.128;2023-06-22T00:12:50;99864.00;;;28.40
12875;BMP180;6505;51.114;13.128;2023-06-22T00:15:17;99869.00;;;28.30
12875;BMP180;6505;51.114;13.128;2023-06-22T00:17:45;99875.00;;;28.30
12875;BMP180;6505;51.114;13.128;2023-06-22T00:20:15;99866.00;;;28.30
12875;BMP180;6505;51.114;13.128;2023-06-22T00:22:45;99873.00;;;28.30
12875;BMP180;6505;51.114;13.128;2023-06-22T00:25:14;99868.00;;;28.20
12875;BMP180;6505;51.114;13.128;2023-06-22T00:27:42;99864.00;;;28.20
12875;BMP180;6505;51.114;13.128;2023-06-22T00:30:11;99860.00;;;28.20
12875;BMP180;6505;51.114;13.128;2023-06-22T00:32:39;99859.00;;;28.20
12875;BMP180;6505;51.114;13.128;2023-06-22T00:35:08;99862.00;;;28.10
12875;BMP180;6505;51.114;13.128;2023-06-22T00:37:38;99863.00;;;28.10
12875;BMP180;6505;51.114;13.128;2023-06-22T00:40:10;99857.00;;;28.10
12875;BMP180;6505;51.114;13.128;2023-06-22T00:42:39;99848.00;;;28.10
12875;BMP180;6505;51.114;13.128;2023-06-22T00:45:08;99864.00;;;28.00
12875;BMP180;6505;51.114;13.128;2023-06-22T00:47:37;99860.00;;;28.00
12875;BMP180;6505;51.114;13.128;2023-06-22T00:50:07;99858.00;;;28.00
12875;BMP180;6505;51.114;13.128;2023-06-22T00:52:38;99862.00;;;27.90
12875;BMP180;6505;51.114;13.128;2023-06-22T00:55:10;99866.00;;;27.90
12875;BMP180;6505;51.114;13.128;2023-06-22T00:57:38;99863.00;;;27.90
12875;BMP180;6505;51.114;13.128;2023-06-22T01:00:08;99858.00;;;27.90
12875;BMP180;6505;51.114;13.128;2023-06-22T01:02:38;99866.00;;;27.90
12875;BMP180;6505;51.114;13.128;2023-06-22T01:05:08;99850.00;;;27.80
12875;BMP180;6505;51.114;13.128;2023-06-22T01:07:44;99861.00;;;27.80
12875;BMP180;6505;51.114;13.128;2023-06-22T01:10:22;99857.00;;;27.70
12875;BMP180;6505;51.114;13.128;2023-06-22T01:12:58;99858.00;;;27.70
12875;BMP180;6505;51.114;13.128;2023-06-22T01:15:36;99853.00;;;27.70
12875;BMP180;6505;51.114;13.128;2023-06-22T01:18:08;99857.00;;;27.70
12875;BMP180;6505;51.114;13.128;2023-06-22T01:20:38;99854.00;;;27.70
12875;BMP180;6505;51.114;13.128;2023-06-22T01:23:17;99845.00;;;27.60
12875;BMP180;6505;51.114;13.128;2023-06-22T01:26:05;99845.00;;;27.60
12875;BMP180;6505;51.114;13.128;2023-06-22T01:28:46;99838.00;;;27.50
12875;BMP180;6505;51.114;13.128;2023-06-22T01:31:18;99839.00;;;27.60
12875;BMP180;6505;51.114;13.128;2023-06-22T01:33:51;99838.00;;;27.50
12875;BMP180;6505;51.114;13.128;2023-06-22T01:36:22;99848.00;;;27.50
12875;BMP180;6505;51.114;13.128;2023-06-22T01:38:53;99847.00;;;27.50
12875;BMP180;6505;51.114;13.128;2023-06-22T01:41:25;99843.00;;;27.50
12875;BMP180;6505;51.114;13.128;2023-06-22T01:43:56;99833.00;;;27.40
12875;BMP180;6505;51.114;13.128;2023-06-22T01:46:24;99847.00;;;27.50
12875;BMP180;6505;51.114;13.128;2023-06-22T01:48:53;99841.00;;;27.40
12875;BMP180;6505;51.114;13.128;2023-06-22T01:51:22;99843.00;;;27.40
12875;BMP180;6505;51.114;13.128;2023-06-22T01:53:50;99836.00;;;27.40
12875;BMP180;6505;51.114;13.128;2023-06-22T01:56:18;99837.00;;;27.40
12875;BMP180;6505;51.114;13.128;2023-06-22T01:58:59;99830.00;;;27.30
12875;BMP180;6505;51.114;13.128;2023-06-22T02:01:33;99831.00;;;27.30
12875;BMP180;6505;51.114;13.128;2023-06-22T02:04:12;99828.00;;;27.30
12875;BMP180;6505;51.114;13.128;2023-06-22T02:06:45;99840.00;;;27.30
12875;BMP180;6505;51.114;13.128;2023-06-22T02:09:17;99836.00;;;27.20
12875;BMP180;6505;51.114;13.128;2023-06-22T02:11:46;99841.00;;;27.20
12875;BMP180;6505;51.114;13.128;2023-06-22T02:14:17;99835.00;;;27.20
12875;BMP180;6505;51.114;13.128;2023-06-22T02:16:46;99834.00;;;27.20
12875;BMP180;6505;51.114;13.128;2023-06-22T02:19:14;99853.00;;;27.20
12875;BMP180;6505;51.114;13.128;2023-06-22T02:21:45;99849.00;;;27.20
12875;BMP180;6505;51.114;13.128;2023-06-22T02:24:13;99845.00;;;27.10
12875;BMP180;6505;51.114;13.128;2023-06-22T02:26:42;99845.00;;;27.10
12875;BMP180;6505;51.114;13.128;2023-06-22T02:29:12;99853.00;;;27.10
12875;BMP180;6505;51.114;13.128;2023-06-22T02:31:43;99850.00;;;27.00
12875;BMP180;6505;51.114;13.128;2023-06-22T02:34:12;99856.00;;;27.10
12875;BMP180;6505;51.114;13.128;2023-06-22T02:36:45;99859.00;;;27.00
12875;BMP180;6505;51.114;13.128;2023-06-22T02:39:20;99860.00;;;27.00
12875;BMP180;6505;51.114;13.128;2023-06-22T02:41:49;99860.00;;;27.00
12875;BMP180;6505;51.114;13.128;2023-06-22T02:44:18;99854.00;;;27.00
12875;BMP180;6505;51.114;13.128;2023-06-22T02:46:49;99847.00;;;27.00
12875;BMP180;6505;51.114;13.128;2023-06-22T02:49:18;99851.00;;;27.00
12875;BMP180;6505;51.114;13.128;2023-06-22T02:51:48;99843.00;;;26.90
12875;BMP180;6505;51.114;13.128;2023-06-22T02:54:19;99839.00;;;26.90
12875;BMP180;6505;51.114;13.128;2023-06-22T02:56:49;99845.00;;;26.90
12875;BMP180;6505;51.114;13.128;2023-06-22T02:59:17;99833.00;;;26.90
12875;BMP180;6505;51.114;13.128;2023-06-22T03:01:57;99825.00;;;26.80
12875;BMP180;6505;51.114;13.128;2023-06-22T03:04:29;99820.00;;;26.80
12875;BMP180;6505;51.114;13.128;2023-06-22T03:06:58;99826.00;;;26.80
12875;BMP180;6505;51.114;13.128;2023-06-22T03:09:29;99832.00;;;26.80
12875;BMP180;6505;51.114;13.128;2023-06-22T03:11:57;99823.00;;;26.80
12875;BMP180;6505;51.114;13.128;2023-06-22T03:14:32;99836.00;;;26.80
12875;BMP180;6505;51.114;13.128;2023-06-22T03:17:04;99829.00;;;26.70
12875;BMP180;6505;51.114;13.128;2023-06-22T03:19:36;99826.00;;;26.70
12875;BMP180;6505;51.114;13.128;2023-06-22T03:22:04;99812.00;;;26.70
12875;BMP180;6505;51.114;13.128;2023-06-22T03:24:33;99819.00;;;26.70
12875;BMP180;6505;51.114;13.128;2023-06-22T03:27:01;99809.00;;;26.70
12875;BMP180;6505;51.114;13.128;2023-06-22T03:29:33;99811.00;;;26.70
12875;BMP180;6505;51.114;13.128;2023-06-22T03:32:04;99805.00;;;26.60
12875;BMP180;6505;51.114;13.128;2023-06-22T03:34:33;99809.00;;;26.60
12875;BMP180;6505;51.114;13.128;2023-06-22T03:37:01;99813.00;;;26.60
12875;BMP180;6505;51.114;13.128;2023-06-22T03:39:29;99818.00;;;26.60
12875;BMP180;6505;51.114;13.128;2023-06-22T03:41:58;99808.00;;;26.60
12875;BMP180;6505;51.114;13.128;2023-06-22T03:44:26;99819.00;;;26.60
12875;BMP180;6505;51.114;13.128;2023-06-22T03:46:54;99817.00;;;26.60
12875;BMP180;6505;51.114;13.128;2023-06-22T03:49:23;99824.00;;;26.50
12875;BMP180;6505;51.114;13.128;2023-06-22T03:51:51;99836.00;;;26.50
12875;BMP180;6505;51.114;13.128;2023-06-22T03:54:19;99839.00;;;26.50
12875;BMP180;6505;51.114;13.128;2023-06-22T03:56:47;99837.00;;;26.50
12875;BMP180;6505;51.114;13.128;2023-06-22T03:59:15;99832.00;;;26.50
12875;BMP180;6505;51.114;13.128;2023-06-22T04:01:43;99831.00;;;26.50
12875;BMP180;6505;51.114;13.128;2023-06-22T04:04:11;99844.00;;;26.50
12875;BMP180;6505;51.114;13.128;2023-06-22T04:06:41;99841.00;;;26.50
12875;BMP180;6505;51.114;13.128;2023-06-22T04:09:09;99843.00;;;26.50
12875;BMP180;6505;51.114;13.128;2023-06-22T04:11:37;99845.00;;;26.50
12875;BMP180;6505;51.114;13.128;2023-06-22T04:14:05;99849.00;;;26.50
12875;BMP180;6505;51.114;13.128;2023-06-22T04:16:33;99865.00;;;26.40
12875;BMP180;6505;51.114;13.128;2023-06-22T04:19:02;99863.00;;;26.40
12875;BMP180;6505;51.114;13.128;2023-06-22T04:21:30;99880.00;;;26.40
12875;BMP180;6505;51.114;13.128;2023-06-22T04:23:59;99869.00;;;26.40
12875;BMP180;6505;51.114;13.128;2023-06-22T04:26:27;99884.00;;;26.40
12875;BMP180;6505;51.114;13.128;2023-06-22T04:28:55;99889.00;;;26.40
12875;BMP180;6505;51.114;13.128;2023-06-22T04:31:23;99892.00;;;26.40
12875;BMP180;6505;51.114;13.128;2023-06-22T04:33:54;99896.00;;;26.40
12875;BMP180;6505;51.114;13.128;2023-06-22T04:36:22;99891.00;;;26.40
12875;BMP180;6505;51.114;13.128;2023-06-22T04:38:52;99906.00;;;26.40
12875;BMP180;6505;51.114;13.128;2023-06-22T04:41:21;99903.00;;;26.40
12875;BMP180;6505;51.114;13.128;2023-06-22T04:43:51;99905.00;;;26.40
12875;BMP180;6505;51.114;13.128;2023-06-22T04:46:20;99919.00;;;26.40
12875;BMP180;6505;51.114;13.128;2023-06-22T04:48:48;99923.00;;;26.40
12875;BMP180;6505;51.114;13.128;2023-06-22T04:51:16;99928.00;;;26.40
12875;BMP180;6505;51.114;13.128;2023-06-22T04:53:48;99926.00;;;26.40
12875;BMP180;6505;51.114;13.128;2023-06-22T04:56:16;99925.00;;;26.40
12875;BMP180;6505;51.114;13.128;2023-06-22T04:58:45;99936.00;;;26.40
12875;BMP180;6505;51.114;13.128;2023-06-22T05:01:13;99931.00;;;26.50
12875;BMP180;6505;51.114;13.128;2023-06-22T05:03:41;99928.00;;;26.50
12875;BMP180;6505;51.114;13.128;2023-06-22T05:06:11;99916.00;;;26.50
12875;BMP180;6505;51.114;13.128;2023-06-22T05:08:41;99923.00;;;26.50
12875;BMP180;6505;51.114;13.128;2023-06-22T05:11:09;99918.00;;;26.50
12875;BMP180;6505;51.114;13.128;2023-06-22T05:13:37;99918.00;;;26.50
12875;BMP180;6505;51.114;13.128;2023-06-22T05:16:06;99911.00;;;26.50
12875;BMP180;6505;51.114;13.128;2023-06-22T05:18:34;99906.00;;;26.60
12875;BMP180;6505;51.114;13.128;2023-06-22T05:21:03;99905.00;;;26.50
12875;BMP180;6505;51.114;13.128;2023-06-22T05:23:31;99904.00;;;26.60
12875;BMP180;6505;51.114;13.128;2023-06-22T05:25:59;99910.00;;;26.60
12875;BMP180;6505;51.114;13.128;2023-06-22T05:28:27;99909.00;;;26.60
12875;BMP180;6505;51.114;13.128;2023-06-22T05:30:55;99903.00;;;26.60
12875;BMP180;6505;51.114;13.128;2023-06-22T05:33:24;99899.00;;;26.60
12875;BMP180;6505;51.114;13.128;2023-06-22T05:35:52;99892.00;;;26.70
12875;BMP180;6505;51.114;13.128;2023-06-22T05:38:20;99885.00;;;26.70
12875;BMP180;6505;51.114;13.128;2023-06-22T05:40:48;99882.00;;;26.70
12875;BMP180;6505;51.114;13.128;2023-06-22T05:43:16;99877.00;;;26.70
12875;BMP180;6505;51.114;13.128;2023-06-22T05:45:44;99876.00;;;26.80
12875;BMP180;6505;51.114;13.128;2023-06-22T05:48:12;99877.00;;;26.80
12875;BMP180;6505;51.114;13.128;2023-06-22T05:50:41;99862.00;;;26.80
12875;BMP180;6505;51.114;13.128;2023-06-22T05:53:09;99853.00;;;26.90
12875;BMP180;6505;51.114;13.128;2023-06-22T05:55:37;99829.00;;;26.90
12875;BMP180;6505;51.114;13.128;2023-06-22T05:58:05;99788.00;;;26.90
12875;BMP180;6505;51.114;13.128;2023-06-22T06:00:33;99775.00;;;27.00
12875;BMP180;6505;51.114;13.128;2023-06-22T06:03:02;99766.00;;;27.00
12875;BMP180;6505;51.114;13.128;2023-06-22T06:05:31;99781.00;;;27.10
12875;BMP180;6505;51.114;13.128;2023-06-22T06:08:01;99785.00;;;27.10
12875;BMP180;6505;51.114;13.128;2023-06-22T06:10:29;99792.00;;;27.10
12875;BMP180;6505;51.114;13.128;2023-06-22T06:12:59;99784.00;;;27.20
12875;BMP180;6505;51.114;13.128;2023-06-22T06:15:29;99769.00;;;27.20
12875;BMP180;6505;51.114;13.128;2023-06-22T06:17:58;99769.00;;;27.20
12875;BMP180;6505;51.114;13.128;2023-06-22T06:20:27;99771.00;;;27.30
12875;BMP180;6505;51.114;13.128;2023-06-22T06:22:56;99771.00;;;27.30
12875;BMP180;6505;51.114;13.128;2023-06-22T06:25:26;99781.00;;;27.30
12875;BMP180;6505;51.114;13.128;2023-06-22T06:27:54;99764.00;;;27.30
12875;BMP180;6505;51.114;13.128;2023-06-22T06:30:22;99766.00;;;27.40
12875;BMP180;6505;51.114;13.128;2023-06-22T06:32:50;99788.00;;;27.40
12875;BMP180;6505;51.114;13.128;2023-06-22T06:35:18;99782.00;;;27.40
12875;BMP180;6505;51.114;13.128;2023-06-22T06:37:49;99787.00;;;27.40
12875;BMP180;6505;51.114;13.128;2023-06-22T06:40:18;99798.00;;;27.50
12875;BMP180;6505;51.114;13.128;2023-06-22T06:42:49;99801.00;;;27.50
12875;BMP180;6505;51.114;13.128;2023-06-22T06:45:20;99806.00;;;27.50
12875;BMP180;6505;51.114;13.128;2023-06-22T06:47:51;99802.00;;;27.50
12875;BMP180;6505;51.114;13.128;2023-06-22T06:50:19;99811.00;;;27.60
12875;BMP180;6505;51.114;13.128;2023-06-22T06:52:48;99807.00;;;27.60
12875;BMP180;6505;51.114;13.128;2023-06-22T06:55:17;99822.00;;;27.70
12875;BMP180;6505;51.114;13.128;2023-06-22T06:57:47;99809.00;;;27.70
12875;BMP180;6505;51.114;13.128;2023-06-22T07:00:18;99799.00;;;27.80
12875;BMP180;6505;51.114;13.128;2023-06-22T07:02:46;99800.00;;;27.80
12875;BMP180;6505;51.114;13.128;2023-06-22T07:05:16;99801.00;;;27.90
12875;BMP180;6505;51.114;13.128;2023-06-22T07:07:43;99808.00;;;27.90
12875;BMP180;6505;51.114;13.128;2023-06-22T07:10:11;99811.00;;;27.90
12875;BMP180;6505;51.114;13.128;2023-06-22T07:12:39;99822.00;;;28.00
12875;BMP180;6505;51.114;13.128;2023-06-22T07:15:11;99810.00;;;28.00
12875;BMP180;6505;51.114;13.128;2023-06-22T07:17:40;99813.00;;;28.10
12875;BMP180;6505;51.114;13.128;2023-06-22T07:20:10;99818.00;;;28.10
12875;BMP180;6505;51.114;13.128;2023-06-22T07:22:52;99822.00;;;28.10
12875;BMP180;6505;51.114;13.128;2023-06-22T07:25:20;99818.00;;;28.10
12875;BMP180;6505;51.114;13.128;2023-06-22T07:27:58;99813.00;;;28.10
12875;BMP180;6505;51.114;13.128;2023-06-22T07:30:29;99806.00;;;28.20
12875;BMP180;6505;51.114;13.128;2023-06-22T07:32:59;99805.00;;;28.30
12875;BMP180;6505;51.114;13.128;2023-06-22T07:35:30;99792.00;;;28.30
12875;BMP180;6505;51.114;13.128;2023-06-22T07:37:59;99800.00;;;28.30
12875;BMP180;6505;51.114;13.128;2023-06-22T07:40:32;99804.00;;;28.40
12875;BMP180;6505;51.114;13.128;2023-06-22T07:43:00;99799.00;;;28.40
12875;BMP180;6505;51.114;13.128;2023-06-22T07:45:30;99802.00;;;28.50
12875;BMP180;6505;51.114;13.128;2023-06-22T07:48:00;99807.00;;;28.50
12875;BMP180;6505;51.114;13.128;2023-06-22T07:50:28;99804.00;;;28.60
12875;BMP180;6505;51.114;13.128;2023-06-22T07:52:56;99794.00;;;28.60
12875;BMP180;6505;51.114;13.128;2023-06-22T07:55:24;99800.00;;;28.70
12875;BMP180;6505;51.114;13.128;2023-06-22T07:57:53;99799.00;;;28.70
12875;BMP180;6505;51.114;13.128;2023-06-22T08:00:21;99795.00;;;28.80
12875;BMP180;6505;51.114;13.128;2023-06-22T08:02:50;99788.00;;;28.80
12875;BMP180;6505;51.114;13.128;2023-06-22T08:05:19;99793.00;;;28.90
12875;BMP180;6505;51.114;13.128;2023-06-22T08:07:49;99790.00;;;28.90
12875;BMP180;6505;51.114;13.128;2023-06-22T08:10:18;99783.00;;;29.00
12875;BMP180;6505;51.114;13.128;2023-06-22T08:12:46;99768.00;;;29.00
12875;BMP180;6505;51.114;13.128;2023-06-22T08:15:14;99773.00;;;29.10
12875;BMP180;6505;51.114;13.128;2023-06-22T08:17:43;99777.00;;;29.10
12875;BMP180;6505;51.114;13.128;2023-06-22T08:20:13;99792.00;;;29.20
12875;BMP180;6505;51.114;13.128;2023-06-22T08:22:42;99782.00;;;29.30
12875;BMP180;6505;51.114;13.128;2023-06-22T08:25:11;99771.00;;;29.30
12875;BMP180;6505;51.114;13.128;2023-06-22T08:27:40;99772.00;;;29.40
12875;BMP180;6505;51.114;13.128;2023-06-22T08:30:10;99772.00;;;29.50
12875;BMP180;6505;51.114;13.128;2023-06-22T08:32:38;99773.00;;;29.60
12875;BMP180;6505;51.114;13.128;2023-06-22T08:35:08;99769.00;;;29.60
12875;BMP180;6505;51.114;13.128;2023-06-22T08:37:37;99757.00;;;29.70
12875;BMP180;6505;51.114;13.128;2023-06-22T08:40:08;99764.00;;;29.80
12875;BMP180;6505;51.114;13.128;2023-06-22T08:42:40;99764.00;;;29.90
12875;BMP180;6505;51.114;13.128;2023-06-22T08:45:10;99765.00;;;29.90
12875;BMP180;6505;51.114;13.128;2023-06-22T08:47:38;99761.00;;;30.00
12875;BMP180;6505;51.114;13.128;2023-06-22T08:50:07;99766.00;;;30.10
12875;BMP180;6505;51.114;13.128;2023-06-22T08:52:38;99761.00;;;30.10
12875;BMP180;6505;51.114;13.128;2023-06-22T08:55:09;99764.00;;;30.20
12875;BMP180;6505;51.114;13.128;2023-06-22T08:57:38;99762.00;;;30.40
12875;BMP180;6505;51.114;13.128;2023-06-22T09:00:08;99750.00;;;30.40
12875;BMP180;6505;51.114;13.128;2023-06-22T09:02:44;99750.00;;;30.40
12875;BMP180;6505;51.114;13.128;2023-06-22T09:05:13;99748.00;;;30.50
12875;BMP180;6505;51.114;13.128;2023-06-22T09:07:43;99751.00;;;30.50
12875;BMP180;6505;51.114;13.128;2023-06-22T09:10:11;99737.00;;;30.60
12875;BMP180;6505;51.114;13.128;2023-06-22T09:12:39;99763.00;;;30.60
12875;BMP180;6505;51.114;13.128;2023-06-22T09:15:08;99747.00;;;30.70
12875;BMP180;6505;51.114;13.128;2023-06-22T09:17:41;99742.00;;;30.80
12875;BMP180;6505;51.114;13.128;2023-06-22T09:20:11;99743.00;;;30.80
12875;BMP180;6505;51.114;13.128;2023-06-22T09:22:39;99730.00;;;30.90
12875;BMP180;6505;51.114;13.128;2023-06-22T09:25:09;99747.00;;;30.90
12875;BMP180;6505;51.114;13.128;2023-06-22T09:27:37;99739.00;;;31.00
12875;BMP180;6505;51.114;13.128;2023-06-22T09:30:06;99750.00;;;31.00
12875;BMP180;6505;51.114;13.128;2023-06-22T09:32:35;99732.00;;;31.10
12875;BMP180;6505;51.114;13.128;2023-06-22T09:35:05;99724.00;;;31.10
12875;BMP180;6505;51.114;13.128;2023-06-22T09:37:35;99729.00;;;31.10
12875;BMP180;6505;51.114;13.128;2023-06-22T09:40:08;99733.00;;;31.20
12875;BMP180;6505;51.114;13.128;2023-06-22T09:42:38;99729.00;;;31.20
12875;BMP180;6505;51.114;13.128;2023-06-22T09:45:07;99722.00;;;31.20
12875;BMP180;6505;51.114;13.128;2023-06-22T09:47:36;99718.00;;;31.20
12875;BMP180;6505;51.114;13.128;2023-06-22T09:50:05;99703.00;;;31.20
12875;BMP180;6505;51.114;13.128;2023-06-22T09:52:33;99696.00;;;31.30
12875;BMP180;6505;51.114;13.128;2023-06-22T09:55:15;99700.00;;;31.30
12875;BMP180;6505;51.114;13.128;2023-06-22T09:57:44;99708.00;;;31.30
12875;BMP180;6505;51.114;13.128;2023-06-22T10:00:13;99703.00;;;31.30
12875;BMP180;6505;51.114;13.128;2023-06-22T10:02:42;99700.00;;;31.30
12875;BMP180;6505;51.114;13.128;2023-06-22T10:05:11;99699.00;;;31.30
12875;BMP180;6505;51.114;13.128;2023-06-22T10:07:40;99705.00;;;31.30
12875;BMP180;6505;51.114;13.128;2023-06-22T10:10:12;99702.00;;;31.30
12875;BMP180;6505;51.114;13.128;2023-06-22T10:12:47;99701.00;;;31.40
12875;BMP180;6505;51.114;13.128;2023-06-22T10:15:15;99693.00;;;31.40
12875;BMP180;6505;51.114;13.128;2023-06-22T10:17:44;99699.00;;;31.40
12875;BMP180;6505;51.114;13.128;2023-06-22T10:20:12;99705.00;;;31.40
12875;BMP180;6505;51.114;13.128;2023-06-22T10:22:41;99695.00;;;31.40
12875;BMP180;6505;51.114;13.128;2023-06-22T10:25:10;99685.00;;;31.50
12875;BMP180;6505;51.114;13.128;2023-06-22T10:27:39;99697.00;;;31.50
12875;BMP180;6505;51.114;13.128;2023-06-22T10:30:11;99682.00;;;31.40
12875;BMP180;6505;51.114;13.128;2023-06-22T10:32:41;99687.00;;;31.50
12875;BMP180;6505;51.114;13.128;2023-06-22T10:35:10;99685.00;;;31.50
12875;BMP180;6505;51.114;13.128;2023-06-22T10:37:41;99680.00;;;31.50
12875;BMP180;6505;51.114;13.128;2023-06-22T10:40:12;99667.00;;;31.50
12875;BMP180;6505;51.114;13.128;2023-06-22T10:42:40;99667.00;;;31.50
12875;BMP180;6505;51.114;13.128;2023-06-22T10:45:10;99664.00;;;31.50
12875;BMP180;6505;51.114;13.128;2023-06-22T10:47:38;99660.00;;;31.50
12875;BMP180;6505;51.114;13.128;2023-06-22T10:50:07;99674.00;;;31.50
12875;BMP180;6505;51.114;13.128;2023-06-22T10:52:35;99659.00;;;31.60
12875;BMP180;6505;51.114;13.128;2023-06-22T10:55:04;99668.00;;;31.60
12875;BMP180;6505;51.114;13.128;2023-06-22T10:57:32;99660.00;;;31.60
12875;BMP180;6505;51.114;13.128;2023-06-22T11:00:00;99659.00;;;31.60
12875;BMP180;6505;51.114;13.128;2023-06-22T11:02:29;99662.00;;;31.60
12875;BMP180;6505;51.114;13.128;2023-06-22T11:04:57;99664.00;;;31.60
12875;BMP180;6505;51.114;13.128;2023-06-22T11:07:27;99656.00;;;31.60
12875;BMP180;6505;51.114;13.128;2023-06-22T11:09:55;99661.00;;;31.60
12875;BMP180;6505;51.114;13.128;2023-06-22T11:12:24;99653.00;;;31.60
12875;BMP180;6505;51.114;13.128;2023-06-22T11:14:51;99654.00;;;31.60
12875;BMP180;6505;51.114;13.128;2023-06-22T11:17:19;99637.00;;;31.70
12875;BMP180;6505;51.114;13.128;2023-06-22T11:19:51;99637.00;;;31.70
12875;BMP180;6505;51.114;13.128;2023-06-22T11:22:19;99646.00;;;31.70
12875;BMP180;6505;51.114;13.128;2023-06-22T11:24:47;99641.00;;;31.70
12875;BMP180;6505;51.114;13.128;2023-06-22T11:27:15;99640.00;;;31.70
12875;BMP180;6505;51.114;13.128;2023-06-22T11:29:43;99634.00;;;31.70
12875;BMP180;6505;51.114;13.128;2023-06-22T11:32:11;99633.00;;;31.70
12875;BMP180;6505;51.114;13.128;2023-06-22T11:34:40;99639.00;;;31.70
12875;BMP180;6505;51.114;13.128;2023-06-22T11:37:10;99635.00;;;31.70
12875;BMP180;6505;51.114;13.128;2023-06-22T11:39:37;99632.00;;;31.70
12875;BMP180;6505;51.114;13.128;2023-06-22T11:42:13;99628.00;;;31.80
12875;BMP180;6505;51.114;13.128;2023-06-22T11:44:42;99628.00;;;31.80
12875;BMP180;6505;51.114;13.128;2023-06-22T11:47:10;99618.00;;;31.80
12875;BMP180;6505;51.114;13.128;2023-06-22T11:49:38;99615.00;;;31.80
12875;BMP180;6505;51.114;13.128;2023-06-22T11:52:07;99616.00;;;31.80
12875;BMP180;6505;51.114;13.128;2023-06-22T11:54:36;99624.00;;;31.80
12875;BMP180;6505;51.114;13.128;2023-06-22T11:57:04;99610.00;;;31.80
12875;BMP180;6505;51.114;13.128;2023-06-22T11:59:32;99612.00;;;31.90
12875;BMP180;6505;51.114;13.128;2023-06-22T12:02:00;99604.00;;;31.90
12875;BMP180;6505;51.114;13.128;2023-06-22T12:04:28;99597.00;;;31.90
12875;BMP180;6505;51.114;13.128;2023-06-22T12:06:56;99599.00;;;31.90
12875;BMP180;6505;51.114;13.128;2023-06-22T12:09:25;99598.00;;;31.90
12875;BMP180;6505;51.114;13.128;2023-06-22T12:11:54;99594.00;;;31.90
12875;BMP180;6505;51.114;13.128;2023-06-22T12:14:22;99593.00;;;31.90
12875;BMP180;6505;51.114;13.128;2023-06-22T12:16:50;99584.00;;;31.90
12875;BMP180;6505;51.114;13.128;2023-06-22T12:19:18;99585.00;;;32.00
12875;BMP180;6505;51.114;13.128;2023-06-22T12:21:46;99581.00;;;31.90
12875;BMP180;6505;51.114;13.128;2023-06-22T12:24:14;99571.00;;;32.00
12875;BMP180;6505;51.114;13.128;2023-06-22T12:26:42;99567.00;;;32.00
12875;BMP180;6505;51.114;13.128;2023-06-22T12:29:12;99560.00;;;32.00
12875;BMP180;6505;51.114;13.128;2023-06-22T12:31:40;99548.00;;;32.00
12875;BMP180;6505;51.114;13.128;2023-06-22T12:34:08;99563.00;;;32.00
12875;BMP180;6505;51.114;13.128;2023-06-22T12:36:36;99560.00;;;32.00
12875;BMP180;6505;51.114;13.128;2023-06-22T12:39:04;99549.00;;;32.00
12875;BMP180;6505;51.114;13.128;2023-06-22T12:41:32;99556.00;;;32.00
12875;BMP180;6505;51.114;13.128;2023-06-22T12:44:01;99552.00;;;32.00
12875;BMP180;6505;51.114;13.128;2023-06-22T12:46:31;99552.00;;;32.00
12875;BMP180;6505;51.114;13.128;2023-06-22T12:49:05;99556.00;;;32.10
12875;BMP180;6505;51.114;13.128;2023-06-22T12:51:33;99543.00;;;32.10
12875;BMP180;6505;51.114;13.128;2023-06-22T12:54:01;99539.00;;;32.10
12875;BMP180;6505;51.114;13.128;2023-06-22T12:56:29;99548.00;;;32.10
12875;BMP180;6505;51.114;13.128;2023-06-22T12:58:57;99550.00;;;32.10
12875;BMP180;6505;51.114;13.128;2023-06-22T13:01:25;99536.00;;;32.10
12875;BMP180;6505;51.114;13.128;2023-06-22T13:03:54;99545.00;;;32.10
12875;BMP180;6505;51.114;13.128;2023-06-22T13:06:22;99537.00;;;32.10
12875;BMP180;6505;51.114;13.128;2023-06-22T13:08:50;99533.00;;;32.10
12875;BMP180;6505;51.114;13.128;2023-06-22T13:11:21;99530.00;;;32.10
12875;BMP180;6505;51.114;13.128;2023-06-22T13:13:49;99518.00;;;32.10
12875;BMP180;6505;51.114;13.128;2023-06-22T13:16:17;99521.00;;;32.20
12875;BMP180;6505;51.114;13.128;2023-06-22T13:18:45;99524.00;;;32.20
12875;BMP180;6505;51.114;13.128;2023-06-22T13:21:15;99515.00;;;32.20
12875;BMP180;6505;51.114;13.128;2023-06-22T13:23:43;99511.00;;;32.20
12875;BMP180;6505;51.114;13.128;2023-06-22T13:26:11;99501.00;;;32.20
12875;BMP180;6505;51.114;13.128;2023-06-22T13:28:39;99504.00;;;32.20
12875;BMP180;6505;51.114;13.128;2023-06-22T13:31:06;99511.00;;;32.20
12875;BMP180;6505;51.114;13.128;2023-06-22T13:33:35;99501.00;;;32.20
12875;BMP180;6505;51.114;13.128;2023-06-22T13:36:03;99481.00;;;32.30
12875;BMP180;6505;51.114;13.128;2023-06-22T13:38:35;99488.00;;;32.20
12875;BMP180;6505;51.114;13.128;2023-06-22T13:41:05;99480.00;;;32.30
12875;BMP180;6505;51.114;13.128;2023-06-22T13:43:33;99479.00;;;32.30
12875;BMP180;6505;51.114;13.128;2023-06-22T13:46:01;99482.00;;;32.30
12875;BMP180;6505;51.114;13.128;2023-06-22T13:48:29;99470.00;;;32.30
12875;BMP180;6505;51.114;13.128;2023-06-22T13:50:57;99488.00;;;32.30
12875;BMP180;6505;51.114;13.128;2023-06-22T13:53:25;99487.00;;;32.30
12875;BMP180;6505;51.114;13.128;2023-06-22T13:55:56;99479.00;;;32.30
12875;BMP180;6505;51.114;13.128;2023-06-22T13:58:24;99477.00;;;32.30
12875;BMP180;6505;51.114;13.128;2023-06-22T14:00:52;99464.00;;;32.30
12875;BMP180;6505;51.114;13.128;2023-06-22T14:03:22;99465.00;;;32.30
12875;BMP180;6505;51.114;13.128;2023-06-22T14:05:51;99466.00;;;32.30
12875;BMP180;6505;51.114;13.128;2023-06-22T14:08:21;99459.00;;;32.40
12875;BMP180;6505;51.114;13.128;2023-06-22T14:11:09;99457.00;;;32.30
12875;BMP180;6505;51.114;13.128;2023-06-22T14:13:37;99462.00;;;32.40
12875;BMP180;6505;51.114;13.128;2023-06-22T14:16:05;99446.00;;;32.40
12875;BMP180;6505;51.114;13.128;2023-06-22T14:18:33;99450.00;;;32.40
12875;BMP180;6505;51.114;13.128;2023-06-22T14:21:01;99445.00;;;32.40